sensor_id;sensor_type;location;lat;lon;timestamp;P1;durP1;ratioP1;P2;durP2;ratioP2
12451;SDS011;6291;48.924;12.204;2023-02-01T00:04:11;4.47;;;2.97;;
12451;SDS011;6291;48.924;12.204;2023-02-01T00:09:14;4.57;;;3.47;;
12451;SDS011;6291;48.924;12.204;2023-02-01T00:14:18;4.30;;;2.58;;
12451;SDS011;6291;48.924;12.204;2023-02-01T00:19:23;4.50;;;2.60;;
12451;SDS011;6291;48.924;12.204;2023-02-01T00:24:26;3.55;;;2.55;;
12451;SDS011;6291;48.924;12.204;2023-02-01T00:29:29;6.40;;;3.80;;
12451;SDS011;6291;48.924;12.204;2023-02-01T00:34:36;5.53;;;3.60;;
12451;SDS011;6291;48.924;12.204;2023-02-01T00:39:40;5.88;;;3.88;;
12451;SDS011;6291;48.924;12.204;2023-02-01T00:44:43;3.38;;;2.45;;
12451;SDS011;6291;48.924;12.204;2023-02-01T00:49:48;3.50;;;2.40;;
12451;SDS011;6291;48.924;12.204;2023-02-01T00:54:51;4.68;;;3.00;;
12451;SDS011;6291;48.924;12.204;2023-02-01T00:59:55;4.68;;;3.90;;
12451;SDS011;6291;48.924;12.204;2023-02-01T01:04:59;3.73;;;2.07;;
12451;SDS011;6291;48.924;12.204;2023-02-01T01:10:03;4.95;;;3.92;;
12451;SDS011;6291;48.924;12.204;2023-02-01T01:15:08;5.00;;;3.13;;
12451;SDS011;6291;48.924;12.204;2023-02-01T01:20:14;2.90;;;2.55;;
12451;SDS011;6291;48.924;12.204;2023-02-01T01:25:18;2.83;;;2.30;;
12451;SDS011;6291;48.924;12.204;2023-02-01T01:30:21;4.00;;;2.83;;
12451;SDS011;6291;48.924;12.204;2023-02-01T01:35:26;5.30;;;3.47;;
12451;SDS011;6291;48.924;12.204;2023-02-01T01:40:31;4.03;;;2.72;;
12451;SDS011;6291;48.924;12.204;2023-02-01T01:45:35;4.00;;;3.40;;
12451;SDS011;6291;48.924;12.204;2023-02-01T01:50:40;4.07;;;2.53;;
12451;SDS011;6291;48.924;12.204;2023-02-01T01:55:49;4.13;;;3.65;;
12451;SDS011;6291;48.924;12.204;2023-02-01T02:00:53;3.47;;;2.60;;
12451;SDS011;6291;48.924;12.204;2023-02-01T02:05:59;5.82;;;4.13;;
12451;SDS011;6291;48.924;12.204;2023-02-01T02:11:05;4.22;;;3.30;;
12451;SDS011;6291;48.924;12.204;2023-02-01T02:21:45;5.15;;;4.30;;
12451;SDS011;6291;48.924;12.204;2023-02-01T02:27:11;4.63;;;3.90;;
12451;SDS011;6291;48.924;12.204;2023-02-01T02:32:37;5.17;;;3.33;;
12451;SDS011;6291;48.924;12.204;2023-02-01T02:38:12;5.75;;;3.80;;
12451;SDS011;6291;48.924;12.204;2023-02-01T02:43:23;4.80;;;4.00;;
12451;SDS011;6291;48.924;12.204;2023-02-01T02:48:52;3.23;;;2.67;;
12451;SDS011;6291;48.924;12.204;2023-02-01T02:54:05;5.57;;;3.85;;
12451;SDS011;6291;48.924;12.204;2023-02-01T02:59:32;4.80;;;3.58;;
12451;SDS011;6291;48.924;12.204;2023-02-01T03:04:54;4.25;;;3.20;;
12451;SDS011;6291;48.924;12.204;2023-02-01T03:10:01;5.18;;;3.20;;
12451;SDS011;6291;48.924;12.204;2023-02-01T03:15:08;4.85;;;4.00;;
12451;SDS011;6291;48.924;12.204;2023-02-01T03:20:17;4.50;;;3.58;;
12451;SDS011;6291;48.924;12.204;2023-02-01T03:25:25;5.05;;;3.80;;
12451;SDS011;6291;48.924;12.204;2023-02-01T03:30:34;3.50;;;3.00;;
12451;SDS011;6291;48.924;12.204;2023-02-01T03:35:40;4.97;;;3.30;;
12451;SDS011;6291;48.924;12.204;2023-02-01T03:40:51;4.07;;;3.22;;
12451;SDS011;6291;48.924;12.204;2023-02-01T03:45:58;2.37;;;2.13;;
12451;SDS011;6291;48.924;12.204;2023-02-01T03:51:07;3.33;;;2.90;;
12451;SDS011;6291;48.924;12.204;2023-02-01T03:56:13;3.87;;;2.77;;
12451;SDS011;6291;48.924;12.204;2023-02-01T04:01:18;3.22;;;2.72;;
12451;SDS011;6291;48.924;12.204;2023-02-01T04:06:22;3.27;;;2.37;;
12451;SDS011;6291;48.924;12.204;2023-02-01T04:11:29;2.03;;;1.83;;
12451;SDS011;6291;48.924;12.204;2023-02-01T04:16:32;3.30;;;2.58;;
12451;SDS011;6291;48.924;12.204;2023-02-01T04:21:36;2.80;;;2.20;;
12451;SDS011;6291;48.924;12.204;2023-02-01T04:26:41;3.15;;;2.58;;
12451;SDS011;6291;48.924;12.204;2023-02-01T04:31:44;2.57;;;1.93;;
12451;SDS011;6291;48.924;12.204;2023-02-01T04:36:48;1.88;;;1.67;;
12451;SDS011;6291;48.924;12.204;2023-02-01T04:41:53;2.78;;;1.95;;
12451;SDS011;6291;48.924;12.204;2023-02-01T04:46:56;2.58;;;1.65;;
12451;SDS011;6291;48.924;12.204;2023-02-01T04:52:00;2.83;;;1.87;;
12451;SDS011;6291;48.924;12.204;2023-02-01T04:57:04;4.15;;;2.40;;
12451;SDS011;6291;48.924;12.204;2023-02-01T05:02:08;2.13;;;1.52;;
12451;SDS011;6291;48.924;12.204;2023-02-01T05:07:11;1.63;;;1.33;;
12451;SDS011;6291;48.924;12.204;2023-02-01T05:12:16;3.35;;;2.05;;
12451;SDS011;6291;48.924;12.204;2023-02-01T05:17:37;1.98;;;1.33;;
12451;SDS011;6291;48.924;12.204;2023-02-01T05:22:41;1.52;;;1.10;;
12451;SDS011;6291;48.924;12.204;2023-02-01T05:27:46;3.15;;;2.05;;
12451;SDS011;6291;48.924;12.204;2023-02-01T05:32:50;3.58;;;1.77;;
12451;SDS011;6291;48.924;12.204;2023-02-01T05:37:53;3.00;;;2.13;;
12451;SDS011;6291;48.924;12.204;2023-02-01T05:42:58;1.70;;;1.00;;
12451;SDS011;6291;48.924;12.204;2023-02-01T05:48:01;2.22;;;1.60;;
12451;SDS011;6291;48.924;12.204;2023-02-01T05:53:05;1.88;;;1.40;;
12451;SDS011;6291;48.924;12.204;2023-02-01T05:58:10;2.42;;;2.22;;
12451;SDS011;6291;48.924;12.204;2023-02-01T06:03:13;1.90;;;1.38;;
12451;SDS011;6291;48.924;12.204;2023-02-01T06:08:17;2.40;;;1.60;;
12451;SDS011;6291;48.924;12.204;2023-02-01T06:13:21;2.17;;;1.77;;
12451;SDS011;6291;48.924;12.204;2023-02-01T06:18:25;2.55;;;1.80;;
12451;SDS011;6291;48.924;12.204;2023-02-01T06:23:28;2.17;;;1.80;;
12451;SDS011;6291;48.924;12.204;2023-02-01T06:28:34;1.97;;;1.40;;
12451;SDS011;6291;48.924;12.204;2023-02-01T06:33:37;2.22;;;1.70;;
12451;SDS011;6291;48.924;12.204;2023-02-01T06:38:41;2.13;;;1.57;;
12451;SDS011;6291;48.924;12.204;2023-02-01T06:43:46;2.42;;;1.65;;
12451;SDS011;6291;48.924;12.204;2023-02-01T06:48:50;3.27;;;2.37;;
12451;SDS011;6291;48.924;12.204;2023-02-01T06:53:53;1.60;;;1.10;;
12451;SDS011;6291;48.924;12.204;2023-02-01T06:58:58;2.63;;;1.57;;
12451;SDS011;6291;48.924;12.204;2023-02-01T07:04:02;1.63;;;1.52;;
12451;SDS011;6291;48.924;12.204;2023-02-01T07:09:06;1.58;;;1.15;;
12451;SDS011;6291;48.924;12.204;2023-02-01T07:14:11;1.58;;;1.38;;
12451;SDS011;6291;48.924;12.204;2023-02-01T07:19:14;1.97;;;1.23;;
12451;SDS011;6291;48.924;12.204;2023-02-01T07:24:18;2.15;;;1.65;;
12451;SDS011;6291;48.924;12.204;2023-02-01T07:29:23;1.88;;;1.55;;
12451;SDS011;6291;48.924;12.204;2023-02-01T07:34:26;1.67;;;1.40;;
12451;SDS011;6291;48.924;12.204;2023-02-01T07:39:29;1.90;;;1.67;;
12451;SDS011;6291;48.924;12.204;2023-02-01T07:44:35;2.10;;;1.80;;
12451;SDS011;6291;48.924;12.204;2023-02-01T07:49:38;2.38;;;1.98;;
12451;SDS011;6291;48.924;12.204;2023-02-01T07:54:41;3.20;;;2.35;;
12451;SDS011;6291;48.924;12.204;2023-02-01T07:59:46;3.28;;;2.67;;
12451;SDS011;6291;48.924;12.204;2023-02-01T08:05:12;5.80;;;3.47;;
12451;SDS011;6291;48.924;12.204;2023-02-01T08:10:16;4.22;;;3.28;;
12451;SDS011;6291;48.924;12.204;2023-02-01T08:15:22;4.03;;;3.63;;
12451;SDS011;6291;48.924;12.204;2023-02-01T08:20:26;3.83;;;3.00;;
12451;SDS011;6291;48.924;12.204;2023-02-01T08:25:29;2.38;;;2.08;;
12451;SDS011;6291;48.924;12.204;2023-02-01T08:30:34;3.15;;;1.88;;
12451;SDS011;6291;48.924;12.204;2023-02-01T08:35:39;3.20;;;2.75;;
12451;SDS011;6291;48.924;12.204;2023-02-01T08:40:44;4.35;;;3.10;;
12451;SDS011;6291;48.924;12.204;2023-02-01T08:45:49;4.07;;;2.73;;
12451;SDS011;6291;48.924;12.204;2023-02-01T08:50:57;2.90;;;2.60;;
12451;SDS011;6291;48.924;12.204;2023-02-01T08:56:04;2.80;;;2.03;;
12451;SDS011;6291;48.924;12.204;2023-02-01T09:01:11;2.55;;;2.03;;
12451;SDS011;6291;48.924;12.204;2023-02-01T09:06:15;2.28;;;1.98;;
12451;SDS011;6291;48.924;12.204;2023-02-01T09:11:19;3.95;;;2.40;;
12451;SDS011;6291;48.924;12.204;2023-02-01T09:16:23;2.10;;;1.90;;
12451;SDS011;6291;48.924;12.204;2023-02-01T09:21:27;1.70;;;1.20;;
12451;SDS011;6291;48.924;12.204;2023-02-01T09:26:31;1.60;;;1.25;;
12451;SDS011;6291;48.924;12.204;2023-02-01T09:31:36;1.70;;;1.17;;
12451;SDS011;6291;48.924;12.204;2023-02-01T09:36:44;1.70;;;1.13;;
12451;SDS011;6291;48.924;12.204;2023-02-01T09:41:51;1.95;;;1.23;;
12451;SDS011;6291;48.924;12.204;2023-02-01T09:47:03;2.53;;;1.67;;
12451;SDS011;6291;48.924;12.204;2023-02-01T09:52:12;3.03;;;2.53;;
12451;SDS011;6291;48.924;12.204;2023-02-01T09:57:19;2.05;;;1.85;;
12451;SDS011;6291;48.924;12.204;2023-02-01T10:02:29;3.75;;;2.70;;
12451;SDS011;6291;48.924;12.204;2023-02-01T10:07:36;2.53;;;2.28;;
12451;SDS011;6291;48.924;12.204;2023-02-01T10:12:59;3.80;;;2.30;;
12451;SDS011;6291;48.924;12.204;2023-02-01T10:18:17;3.70;;;2.42;;
12451;SDS011;6291;48.924;12.204;2023-02-01T10:23:32;3.60;;;2.93;;
12451;SDS011;6291;48.924;12.204;2023-02-01T10:28:48;4.85;;;3.53;;
12451;SDS011;6291;48.924;12.204;2023-02-01T10:33:57;4.10;;;2.92;;
12451;SDS011;6291;48.924;12.204;2023-02-01T10:39:02;3.57;;;2.60;;
12451;SDS011;6291;48.924;12.204;2023-02-01T10:44:10;4.87;;;2.67;;
12451;SDS011;6291;48.924;12.204;2023-02-01T10:49:19;4.18;;;2.58;;
12451;SDS011;6291;48.924;12.204;2023-02-01T10:54:33;3.65;;;2.30;;
12451;SDS011;6291;48.924;12.204;2023-02-01T10:59:39;3.55;;;1.55;;
12451;SDS011;6291;48.924;12.204;2023-02-01T11:04:46;3.60;;;2.30;;
12451;SDS011;6291;48.924;12.204;2023-02-01T11:09:51;3.65;;;2.05;;
12451;SDS011;6291;48.924;12.204;2023-02-01T11:15:12;4.03;;;1.88;;
12451;SDS011;6291;48.924;12.204;2023-02-01T11:20:19;5.18;;;2.40;;
12451;SDS011;6291;48.924;12.204;2023-02-01T11:25:29;3.38;;;1.40;;
12451;SDS011;6291;48.924;12.204;2023-02-01T11:30:36;3.70;;;1.67;;
12451;SDS011;6291;48.924;12.204;2023-02-01T11:35:44;4.00;;;1.80;;
12451;SDS011;6291;48.924;12.204;2023-02-01T11:40:50;4.35;;;1.77;;
12451;SDS011;6291;48.924;12.204;2023-02-01T11:45:54;4.37;;;1.90;;
12451;SDS011;6291;48.924;12.204;2023-02-01T11:51:04;3.83;;;1.60;;
12451;SDS011;6291;48.924;12.204;2023-02-01T11:56:19;3.67;;;1.75;;
12451;SDS011;6291;48.924;12.204;2023-02-01T12:01:39;4.55;;;1.67;;
12451;SDS011;6291;48.924;12.204;2023-02-01T12:06:54;4.45;;;1.98;;
12451;SDS011;6291;48.924;12.204;2023-02-01T12:12:01;8.13;;;2.60;;
12451;SDS011;6291;48.924;12.204;2023-02-01T12:17:27;5.63;;;2.63;;
12451;SDS011;6291;48.924;12.204;2023-02-01T12:22:49;2.83;;;1.70;;
12451;SDS011;6291;48.924;12.204;2023-02-01T12:28:12;2.67;;;1.70;;
12451;SDS011;6291;48.924;12.204;2023-02-01T12:33:29;5.85;;;2.15;;
12451;SDS011;6291;48.924;12.204;2023-02-01T12:38:44;3.78;;;1.88;;
12451;SDS011;6291;48.924;12.204;2023-02-01T12:43:56;5.22;;;2.30;;
12451;SDS011;6291;48.924;12.204;2023-02-01T12:49:10;6.60;;;1.80;;
12451;SDS011;6291;48.924;12.204;2023-02-01T12:54:20;6.68;;;2.40;;
12451;SDS011;6291;48.924;12.204;2023-02-01T12:59:28;8.02;;;2.63;;
12451;SDS011;6291;48.924;12.204;2023-02-01T13:04:38;5.95;;;2.58;;
12451;SDS011;6291;48.924;12.204;2023-02-01T13:09:49;7.70;;;2.80;;
12451;SDS011;6291;48.924;12.204;2023-02-01T13:14:57;6.17;;;2.50;;
12451;SDS011;6291;48.924;12.204;2023-02-01T13:20:06;5.68;;;2.90;;
12451;SDS011;6291;48.924;12.204;2023-02-01T13:25:23;6.78;;;2.70;;
12451;SDS011;6291;48.924;12.204;2023-02-01T13:30:36;6.63;;;3.05;;
12451;SDS011;6291;48.924;12.204;2023-02-01T13:36:00;6.68;;;3.13;;
12451;SDS011;6291;48.924;12.204;2023-02-01T13:41:24;6.67;;;2.90;;
12451;SDS011;6291;48.924;12.204;2023-02-01T13:46:30;5.50;;;2.88;;
12451;SDS011;6291;48.924;12.204;2023-02-01T13:51:43;6.20;;;2.88;;
12451;SDS011;6291;48.924;12.204;2023-02-01T13:56:50;6.05;;;2.53;;
12451;SDS011;6291;48.924;12.204;2023-02-01T14:01:53;5.60;;;2.78;;
12451;SDS011;6291;48.924;12.204;2023-02-01T14:06:57;4.97;;;2.92;;
12451;SDS011;6291;48.924;12.204;2023-02-01T14:17:38;4.18;;;2.20;;
12451;SDS011;6291;48.924;12.204;2023-02-01T14:22:42;6.18;;;3.35;;
12451;SDS011;6291;48.924;12.204;2023-02-01T14:27:45;4.60;;;2.07;;
12451;SDS011;6291;48.924;12.204;2023-02-01T14:32:50;6.90;;;2.20;;
12451;SDS011;6291;48.924;12.204;2023-02-01T14:37:58;3.40;;;1.87;;
12451;SDS011;6291;48.924;12.204;2023-02-01T14:43:07;5.28;;;1.88;;
12451;SDS011;6291;48.924;12.204;2023-02-01T14:48:45;3.78;;;1.98;;
12451;SDS011;6291;48.924;12.204;2023-02-01T14:53:49;6.90;;;2.55;;
12451;SDS011;6291;48.924;12.204;2023-02-01T14:58:55;8.03;;;2.90;;
12451;SDS011;6291;48.924;12.204;2023-02-01T15:04:05;6.47;;;2.90;;
12451;SDS011;6291;48.924;12.204;2023-02-01T15:09:10;6.57;;;2.78;;
12451;SDS011;6291;48.924;12.204;2023-02-01T15:14:17;5.13;;;1.97;;
12451;SDS011;6291;48.924;12.204;2023-02-01T15:19:22;6.57;;;2.78;;
12451;SDS011;6291;48.924;12.204;2023-02-01T15:24:27;4.93;;;2.20;;
12451;SDS011;6291;48.924;12.204;2023-02-01T15:29:32;6.40;;;2.80;;
12451;SDS011;6291;48.924;12.204;2023-02-01T15:34:46;5.30;;;2.35;;
12451;SDS011;6291;48.924;12.204;2023-02-01T15:40:04;5.20;;;2.60;;
12451;SDS011;6291;48.924;12.204;2023-02-01T15:45:21;4.55;;;1.92;;
12451;SDS011;6291;48.924;12.204;2023-02-01T15:50:30;6.05;;;2.13;;
12451;SDS011;6291;48.924;12.204;2023-02-01T15:55:35;4.38;;;1.63;;
12451;SDS011;6291;48.924;12.204;2023-02-01T16:00:44;11.50;;;3.50;;
12451;SDS011;6291;48.924;12.204;2023-02-01T16:05:56;4.70;;;2.00;;
12451;SDS011;6291;48.924;12.204;2023-02-01T16:11:01;8.57;;;2.87;;
12451;SDS011;6291;48.924;12.204;2023-02-01T16:16:17;8.10;;;3.70;;
12451;SDS011;6291;48.924;12.204;2023-02-01T16:21:22;6.50;;;2.55;;
12451;SDS011;6291;48.924;12.204;2023-02-01T16:26:26;8.18;;;3.22;;
12451;SDS011;6291;48.924;12.204;2023-02-01T16:31:30;6.40;;;2.43;;
12451;SDS011;6291;48.924;12.204;2023-02-01T16:36:36;5.72;;;2.38;;
12451;SDS011;6291;48.924;12.204;2023-02-01T16:41:42;4.72;;;1.95;;
12451;SDS011;6291;48.924;12.204;2023-02-01T16:46:47;3.88;;;1.95;;
12451;SDS011;6291;48.924;12.204;2023-02-01T16:51:54;2.67;;;1.15;;
12451;SDS011;6291;48.924;12.204;2023-02-01T16:57:01;3.97;;;1.88;;
12451;SDS011;6291;48.924;12.204;2023-02-01T17:02:04;3.10;;;1.08;;
12451;SDS011;6291;48.924;12.204;2023-02-01T17:07:11;4.85;;;1.55;;
12451;SDS011;6291;48.924;12.204;2023-02-01T17:12:17;5.83;;;2.20;;
12451;SDS011;6291;48.924;12.204;2023-02-01T17:17:25;4.83;;;1.63;;
12451;SDS011;6291;48.924;12.204;2023-02-01T17:22:40;3.03;;;1.13;;
12451;SDS011;6291;48.924;12.204;2023-02-01T17:27:44;5.20;;;1.70;;
12451;SDS011;6291;48.924;12.204;2023-02-01T17:32:47;3.00;;;1.10;;
12451;SDS011;6291;48.924;12.204;2023-02-01T17:37:52;6.57;;;1.70;;
12451;SDS011;6291;48.924;12.204;2023-02-01T17:42:56;4.32;;;1.50;;
12451;SDS011;6291;48.924;12.204;2023-02-01T17:47:59;5.90;;;1.63;;
12451;SDS011;6291;48.924;12.204;2023-02-01T17:53:04;6.10;;;1.75;;
12451;SDS011;6291;48.924;12.204;2023-02-01T17:58:10;3.92;;;1.58;;
12451;SDS011;6291;48.924;12.204;2023-02-01T18:03:19;6.32;;;1.63;;
12451;SDS011;6291;48.924;12.204;2023-02-01T18:08:30;5.60;;;2.05;;
12451;SDS011;6291;48.924;12.204;2023-02-01T18:13:34;8.30;;;2.07;;
12451;SDS011;6291;48.924;12.204;2023-02-01T18:18:38;5.13;;;1.48;;
12451;SDS011;6291;48.924;12.204;2023-02-01T18:23:43;7.05;;;2.15;;
12451;SDS011;6291;48.924;12.204;2023-02-01T18:28:47;4.65;;;1.70;;
12451;SDS011;6291;48.924;12.204;2023-02-01T18:33:50;3.00;;;1.00;;
12451;SDS011;6291;48.924;12.204;2023-02-01T18:38:56;6.15;;;0.85;;
12451;SDS011;6291;48.924;12.204;2023-02-01T18:44:00;4.53;;;1.60;;
12451;SDS011;6291;48.924;12.204;2023-02-01T18:49:04;5.05;;;1.50;;
12451;SDS011;6291;48.924;12.204;2023-02-01T18:54:10;6.03;;;2.10;;
12451;SDS011;6291;48.924;12.204;2023-02-01T18:59:13;3.53;;;1.40;;
12451;SDS011;6291;48.924;12.204;2023-02-01T19:04:19;6.85;;;2.33;;
12451;SDS011;6291;48.924;12.204;2023-02-01T19:09:28;6.67;;;2.17;;
12451;SDS011;6291;48.924;12.204;2023-02-01T19:14:32;4.80;;;1.80;;
12451;SDS011;6291;48.924;12.204;2023-02-01T19:19:36;4.97;;;1.77;;
12451;SDS011;6291;48.924;12.204;2023-02-01T19:24:43;4.07;;;1.67;;
12451;SDS011;6291;48.924;12.204;2023-02-01T19:29:47;5.00;;;1.80;;
12451;SDS011;6291;48.924;12.204;2023-02-01T19:34:50;4.20;;;1.70;;
12451;SDS011;6291;48.924;12.204;2023-02-01T19:39:55;4.67;;;1.87;;
12451;SDS011;6291;48.924;12.204;2023-02-01T19:44:59;4.33;;;1.40;;
12451;SDS011;6291;48.924;12.204;2023-02-01T19:50:02;6.35;;;2.20;;
12451;SDS011;6291;48.924;12.204;2023-02-01T19:55:09;5.27;;;1.50;;
12451;SDS011;6291;48.924;12.204;2023-02-01T20:00:13;4.63;;;1.58;;
12451;SDS011;6291;48.924;12.204;2023-02-01T20:05:17;3.08;;;1.58;;
12451;SDS011;6291;48.924;12.204;2023-02-01T20:10:24;4.73;;;1.33;;
12451;SDS011;6291;48.924;12.204;2023-02-01T20:15:27;4.47;;;1.40;;
12451;SDS011;6291;48.924;12.204;2023-02-01T20:20:30;5.18;;;2.00;;
12451;SDS011;6291;48.924;12.204;2023-02-01T20:25:36;4.18;;;1.42;;
12451;SDS011;6291;48.924;12.204;2023-02-01T20:30:42;3.63;;;1.63;;
12451;SDS011;6291;48.924;12.204;2023-02-01T20:35:46;4.57;;;1.20;;
12451;SDS011;6291;48.924;12.204;2023-02-01T20:40:51;3.42;;;1.67;;
12451;SDS011;6291;48.924;12.204;2023-02-01T20:45:55;6.93;;;1.88;;
12451;SDS011;6291;48.924;12.204;2023-02-01T20:50:58;4.00;;;1.25;;
12451;SDS011;6291;48.924;12.204;2023-02-01T20:56:03;4.43;;;1.60;;
12451;SDS011;6291;48.924;12.204;2023-02-01T21:01:07;4.53;;;1.38;;
12451;SDS011;6291;48.924;12.204;2023-02-01T21:06:11;4.00;;;1.67;;
12451;SDS011;6291;48.924;12.204;2023-02-01T21:11:16;4.13;;;0.98;;
12451;SDS011;6291;48.924;12.204;2023-02-01T21:16:20;3.00;;;1.33;;
12451;SDS011;6291;48.924;12.204;2023-02-01T21:21:27;5.38;;;0.98;;
12451;SDS011;6291;48.924;12.204;2023-02-01T21:26:32;2.67;;;1.40;;
12451;SDS011;6291;48.924;12.204;2023-02-01T21:31:41;2.90;;;1.20;;
12451;SDS011;6291;48.924;12.204;2023-02-01T21:36:45;3.15;;;1.40;;
12451;SDS011;6291;48.924;12.204;2023-02-01T21:41:50;3.80;;;1.48;;
12451;SDS011;6291;48.924;12.204;2023-02-01T21:47:10;3.45;;;0.98;;
12451;SDS011;6291;48.924;12.204;2023-02-01T21:52:14;2.53;;;1.13;;
12451;SDS011;6291;48.924;12.204;2023-02-01T21:57:20;4.80;;;1.40;;
12451;SDS011;6291;48.924;12.204;2023-02-01T22:02:23;3.65;;;1.35;;
12451;SDS011;6291;48.924;12.204;2023-02-01T22:07:26;4.33;;;1.40;;
12451;SDS011;6291;48.924;12.204;2023-02-01T22:12:31;5.82;;;1.75;;
12451;SDS011;6291;48.924;12.204;2023-02-01T22:17:35;4.97;;;1.60;;
12451;SDS011;6291;48.924;12.204;2023-02-01T22:22:38;7.20;;;1.67;;
12451;SDS011;6291;48.924;12.204;2023-02-01T22:27:43;3.85;;;1.25;;
12451;SDS011;6291;48.924;12.204;2023-02-01T22:33:06;3.73;;;1.33;;
12451;SDS011;6291;48.924;12.204;2023-02-01T22:38:10;5.60;;;1.60;;
12451;SDS011;6291;48.924;12.204;2023-02-01T22:43:14;6.43;;;1.80;;
12451;SDS011;6291;48.924;12.204;2023-02-01T22:48:18;3.40;;;1.20;;
12451;SDS011;6291;48.924;12.204;2023-02-01T22:53:22;4.73;;;1.33;;
12451;SDS011;6291;48.924;12.204;2023-02-01T22:58:27;5.95;;;1.50;;
12451;SDS011;6291;48.924;12.204;2023-02-01T23:03:31;4.88;;;1.25;;
12451;SDS011;6291;48.924;12.204;2023-02-01T23:08:35;6.22;;;1.83;;
12451;SDS011;6291;48.924;12.204;2023-02-01T23:13:42;6.83;;;1.80;;
12451;SDS011;6291;48.924;12.204;2023-02-01T23:18:45;5.50;;;1.55;;
12451;SDS011;6291;48.924;12.204;2023-02-01T23:23:50;6.82;;;1.30;;
12451;SDS011;6291;48.924;12.204;2023-02-01T23:28:56;5.28;;;1.55;;
12451;SDS011;6291;48.924;12.204;2023-02-01T23:34:01;4.07;;;1.10;;
12451;SDS011;6291;48.924;12.204;2023-02-01T23:39:05;8.80;;;1.57;;
12451;SDS011;6291;48.924;12.204;2023-02-01T23:44:10;7.22;;;1.38;;
12451;SDS011;6291;48.924;12.204;2023-02-01T23:49:14;7.27;;;1.90;;
12451;SDS011;6291;48.924;12.204;2023-02-01T23:54:20;5.75;;;1.40;;
12451;SDS011;6291;48.924;12.204;2023-02-01T23:59:25;3.05;;;0.95;;
